sensor_id;sensor_type;location;lat;lon;timestamp;P1;durP1;ratioP1;P2;durP2;ratioP2
32216;SDS011;67098;51.140;4.088;2023-04-24T00:00:03;27.35;;;16.02;;
32216;SDS011;67098;51.140;4.088;2023-04-24T00:02:34;34.67;;;16.95;;
32216;SDS011;67098;51.140;4.088;2023-04-24T00:05:03;35.22;;;16.88;;
32216;SDS011;67098;51.140;4.088;2023-04-24T00:07:32;30.67;;;17.13;;
32216;SDS011;67098;51.140;4.088;2023-04-24T00:09:59;32.10;;;16.50;;
32216;SDS011;67098;51.140;4.088;2023-04-24T00:12:25;31.55;;;18.52;;
32216;SDS011;67098;51.140;4.088;2023-04-24T00:14:51;26.67;;;17.25;;
32216;SDS011;67098;51.140;4.088;2023-04-24T00:17:17;33.38;;;16.67;;
32216;SDS011;67098;51.140;4.088;2023-04-24T00:19:47;30.90;;;18.25;;
32216;SDS011;67098;51.140;4.088;2023-04-24T00:22:13;29.15;;;17.05;;
32216;SDS011;67098;51.140;4.088;2023-04-24T00:24:39;29.75;;;17.60;;
32216;SDS011;67098;51.140;4.088;2023-04-24T00:27:05;35.85;;;18.75;;
32216;SDS011;67098;51.140;4.088;2023-04-24T00:29:31;31.80;;;19.25;;
32216;SDS011;67098;51.140;4.088;2023-04-24T00:31:57;32.53;;;19.42;;
32216;SDS011;67098;51.140;4.088;2023-04-24T00:34:22;30.83;;;17.80;;
32216;SDS011;67098;51.140;4.088;2023-04-24T00:36:48;37.83;;;18.23;;
32216;SDS011;67098;51.140;4.088;2023-04-24T00:39:19;37.53;;;18.88;;
32216;SDS011;67098;51.140;4.088;2023-04-24T00:41:45;33.92;;;19.02;;
32216;SDS011;67098;51.140;4.088;2023-04-24T00:44:13;30.45;;;20.20;;
32216;SDS011;67098;51.140;4.088;2023-04-24T00:46:39;27.75;;;19.05;;
32216;SDS011;67098;51.140;4.088;2023-04-24T00:49:05;30.95;;;18.65;;
32216;SDS011;67098;51.140;4.088;2023-04-24T00:51:31;32.65;;;19.25;;
32216;SDS011;67098;51.140;4.088;2023-04-24T00:53:58;30.23;;;19.08;;
32216;SDS011;67098;51.140;4.088;2023-04-24T00:56:25;34.58;;;17.60;;
32216;SDS011;67098;51.140;4.088;2023-04-24T00:58:51;30.10;;;16.67;;
32216;SDS011;67098;51.140;4.088;2023-04-24T01:01:17;28.70;;;17.75;;
32216;SDS011;67098;51.140;4.088;2023-04-24T01:03:45;29.10;;;16.50;;
32216;SDS011;67098;51.140;4.088;2023-04-24T01:06:12;26.27;;;16.25;;
32216;SDS011;67098;51.140;4.088;2023-04-24T01:08:38;22.33;;;14.93;;
32216;SDS011;67098;51.140;4.088;2023-04-24T01:11:05;29.48;;;15.13;;
32216;SDS011;67098;51.140;4.088;2023-04-24T01:13:31;22.85;;;13.75;;
32216;SDS011;67098;51.140;4.088;2023-04-24T01:15:58;25.02;;;14.40;;
32216;SDS011;67098;51.140;4.088;2023-04-24T01:18:23;19.02;;;13.15;;
32216;SDS011;67098;51.140;4.088;2023-04-24T01:20:50;21.98;;;13.25;;
32216;SDS011;67098;51.140;4.088;2023-04-24T01:23:18;21.30;;;12.93;;
32216;SDS011;67098;51.140;4.088;2023-04-24T01:25:44;25.98;;;13.13;;
32216;SDS011;67098;51.140;4.088;2023-04-24T01:28:10;18.08;;;11.15;;
32216;SDS011;67098;51.140;4.088;2023-04-24T01:30:36;16.00;;;10.35;;
32216;SDS011;67098;51.140;4.088;2023-04-24T01:33:02;21.33;;;10.95;;
32216;SDS011;67098;51.140;4.088;2023-04-24T01:35:28;14.13;;;10.45;;
32216;SDS011;67098;51.140;4.088;2023-04-24T01:37:53;17.80;;;9.85;;
32216;SDS011;67098;51.140;4.088;2023-04-24T01:40:19;14.77;;;9.93;;
32216;SDS011;67098;51.140;4.088;2023-04-24T01:42:45;15.75;;;9.52;;
32216;SDS011;67098;51.140;4.088;2023-04-24T01:45:11;18.40;;;10.45;;
32216;SDS011;67098;51.140;4.088;2023-04-24T01:47:40;19.90;;;10.95;;
32216;SDS011;67098;51.140;4.088;2023-04-24T01:50:06;18.05;;;10.73;;
32216;SDS011;67098;51.140;4.088;2023-04-24T01:52:33;15.80;;;10.35;;
32216;SDS011;67098;51.140;4.088;2023-04-24T01:55:00;19.77;;;11.18;;
32216;SDS011;67098;51.140;4.088;2023-04-24T01:57:26;24.38;;;12.45;;
32216;SDS011;67098;51.140;4.088;2023-04-24T01:59:51;20.02;;;12.32;;
32216;SDS011;67098;51.140;4.088;2023-04-24T02:02:18;20.92;;;13.55;;
32216;SDS011;67098;51.140;4.088;2023-04-24T02:04:46;22.25;;;13.68;;
32216;SDS011;67098;51.140;4.088;2023-04-24T02:07:11;21.83;;;14.43;;
32216;SDS011;67098;51.140;4.088;2023-04-24T02:09:37;20.92;;;14.85;;
32216;SDS011;67098;51.140;4.088;2023-04-24T02:12:03;22.65;;;15.98;;
32216;SDS011;67098;51.140;4.088;2023-04-24T02:14:28;20.73;;;15.43;;
32216;SDS011;67098;51.140;4.088;2023-04-24T02:16:54;26.55;;;15.52;;
32216;SDS011;67098;51.140;4.088;2023-04-24T02:19:20;22.77;;;15.63;;
32216;SDS011;67098;51.140;4.088;2023-04-24T02:21:45;24.90;;;16.15;;
32216;SDS011;67098;51.140;4.088;2023-04-24T02:24:11;21.95;;;15.88;;
32216;SDS011;67098;51.140;4.088;2023-04-24T02:26:36;23.35;;;15.50;;
32216;SDS011;67098;51.140;4.088;2023-04-24T02:29:02;24.27;;;16.60;;
32216;SDS011;67098;51.140;4.088;2023-04-24T02:31:28;24.27;;;15.50;;
32216;SDS011;67098;51.140;4.088;2023-04-24T02:33:53;25.58;;;15.27;;
32216;SDS011;67098;51.140;4.088;2023-04-24T02:36:19;25.25;;;16.95;;
32216;SDS011;67098;51.140;4.088;2023-04-24T02:38:45;24.70;;;16.48;;
32216;SDS011;67098;51.140;4.088;2023-04-24T02:41:10;22.02;;;14.93;;
32216;SDS011;67098;51.140;4.088;2023-04-24T02:43:36;22.00;;;14.60;;
32216;SDS011;67098;51.140;4.088;2023-04-24T02:46:01;22.02;;;15.18;;
32216;SDS011;67098;51.140;4.088;2023-04-24T02:48:27;21.13;;;14.65;;
32216;SDS011;67098;51.140;4.088;2023-04-24T02:50:53;21.70;;;14.98;;
32216;SDS011;67098;51.140;4.088;2023-04-24T02:53:19;22.48;;;14.63;;
32216;SDS011;67098;51.140;4.088;2023-04-24T02:55:45;23.45;;;15.52;;
32216;SDS011;67098;51.140;4.088;2023-04-24T02:58:11;27.08;;;15.85;;
32216;SDS011;67098;51.140;4.088;2023-04-24T03:00:38;22.02;;;15.52;;
32216;SDS011;67098;51.140;4.088;2023-04-24T03:03:04;19.42;;;14.43;;
32216;SDS011;67098;51.140;4.088;2023-04-24T03:05:30;26.75;;;16.00;;
32216;SDS011;67098;51.140;4.088;2023-04-24T03:07:56;29.05;;;16.42;;
32216;SDS011;67098;51.140;4.088;2023-04-24T03:10:22;23.38;;;16.50;;
32216;SDS011;67098;51.140;4.088;2023-04-24T03:12:48;27.83;;;16.58;;
32216;SDS011;67098;51.140;4.088;2023-04-24T03:15:13;30.98;;;17.17;;
32216;SDS011;67098;51.140;4.088;2023-04-24T03:17:40;31.27;;;16.27;;
32216;SDS011;67098;51.140;4.088;2023-04-24T03:20:06;29.13;;;12.70;;
32216;SDS011;67098;51.140;4.088;2023-04-24T03:22:35;24.55;;;13.13;;
32216;SDS011;67098;51.140;4.088;2023-04-24T03:25:01;23.00;;;9.80;;
32216;SDS011;67098;51.140;4.088;2023-04-24T03:27:26;15.07;;;7.28;;
32216;SDS011;67098;51.140;4.088;2023-04-24T03:29:52;11.77;;;5.25;;
32216;SDS011;67098;51.140;4.088;2023-04-24T03:32:23;12.15;;;4.15;;
32216;SDS011;67098;51.140;4.088;2023-04-24T03:34:49;10.75;;;3.60;;
32216;SDS011;67098;51.140;4.088;2023-04-24T03:37:17;7.80;;;3.72;;
32216;SDS011;67098;51.140;4.088;2023-04-24T03:39:43;8.75;;;3.50;;
32216;SDS011;67098;51.140;4.088;2023-04-24T03:42:09;5.45;;;3.70;;
32216;SDS011;67098;51.140;4.088;2023-04-24T03:44:35;9.38;;;3.95;;
32216;SDS011;67098;51.140;4.088;2023-04-24T03:47:01;7.18;;;3.97;;
32216;SDS011;67098;51.140;4.088;2023-04-24T03:49:27;11.40;;;4.47;;
32216;SDS011;67098;51.140;4.088;2023-04-24T03:51:52;7.50;;;4.10;;
32216;SDS011;67098;51.140;4.088;2023-04-24T03:54:18;10.20;;;4.65;;
32216;SDS011;67098;51.140;4.088;2023-04-24T03:56:45;8.25;;;4.45;;
32216;SDS011;67098;51.140;4.088;2023-04-24T03:59:11;14.55;;;5.70;;
32216;SDS011;67098;51.140;4.088;2023-04-24T04:01:36;10.65;;;4.50;;
32216;SDS011;67098;51.140;4.088;2023-04-24T04:04:03;9.43;;;5.03;;
32216;SDS011;67098;51.140;4.088;2023-04-24T04:06:29;12.32;;;5.93;;
32216;SDS011;67098;51.140;4.088;2023-04-24T04:08:56;15.75;;;5.82;;
32216;SDS011;67098;51.140;4.088;2023-04-24T04:11:22;14.25;;;6.70;;
32216;SDS011;67098;51.140;4.088;2023-04-24T04:13:48;15.52;;;7.55;;
32216;SDS011;67098;51.140;4.088;2023-04-24T04:16:13;17.58;;;8.90;;
32216;SDS011;67098;51.140;4.088;2023-04-24T04:18:41;18.90;;;8.18;;
32216;SDS011;67098;51.140;4.088;2023-04-24T04:21:07;17.30;;;9.85;;
32216;SDS011;67098;51.140;4.088;2023-04-24T04:23:33;17.60;;;9.13;;
32216;SDS011;67098;51.140;4.088;2023-04-24T04:25:59;20.17;;;9.30;;
32216;SDS011;67098;51.140;4.088;2023-04-24T04:28:25;18.48;;;10.13;;
32216;SDS011;67098;51.140;4.088;2023-04-24T04:30:51;23.33;;;9.95;;
32216;SDS011;67098;51.140;4.088;2023-04-24T04:33:20;20.92;;;10.35;;
32216;SDS011;67098;51.140;4.088;2023-04-24T04:35:46;23.45;;;10.23;;
32216;SDS011;67098;51.140;4.088;2023-04-24T04:38:17;25.70;;;11.15;;
32216;SDS011;67098;51.140;4.088;2023-04-24T04:40:44;19.20;;;9.75;;
32216;SDS011;67098;51.140;4.088;2023-04-24T04:43:10;22.80;;;10.73;;
32216;SDS011;67098;51.140;4.088;2023-04-24T04:45:36;23.40;;;10.52;;
32216;SDS011;67098;51.140;4.088;2023-04-24T04:48:04;21.08;;;10.13;;
32216;SDS011;67098;51.140;4.088;2023-04-24T04:50:32;18.92;;;10.35;;
32216;SDS011;67098;51.140;4.088;2023-04-24T04:52:58;19.80;;;10.02;;
32216;SDS011;67098;51.140;4.088;2023-04-24T04:55:24;21.27;;;9.63;;
32216;SDS011;67098;51.140;4.088;2023-04-24T04:57:50;22.80;;;9.52;;
32216;SDS011;67098;51.140;4.088;2023-04-24T05:00:16;18.33;;;9.40;;
32216;SDS011;67098;51.140;4.088;2023-04-24T05:02:42;22.80;;;10.00;;
32216;SDS011;67098;51.140;4.088;2023-04-24T05:05:07;19.27;;;8.48;;
32216;SDS011;67098;51.140;4.088;2023-04-24T05:07:34;23.63;;;9.15;;
32216;SDS011;67098;51.140;4.088;2023-04-24T05:10:00;19.02;;;9.85;;
32216;SDS011;67098;51.140;4.088;2023-04-24T05:12:25;23.08;;;8.63;;
32216;SDS011;67098;51.140;4.088;2023-04-24T05:14:51;20.85;;;10.80;;
32216;SDS011;67098;51.140;4.088;2023-04-24T05:17:17;21.83;;;10.82;;
32216;SDS011;67098;51.140;4.088;2023-04-24T05:19:43;24.92;;;9.63;;
32216;SDS011;67098;51.140;4.088;2023-04-24T05:22:10;28.27;;;11.07;;
32216;SDS011;67098;51.140;4.088;2023-04-24T05:24:36;25.08;;;10.70;;
32216;SDS011;67098;51.140;4.088;2023-04-24T05:27:02;28.17;;;11.23;;
32216;SDS011;67098;51.140;4.088;2023-04-24T05:29:29;21.80;;;11.15;;
32216;SDS011;67098;51.140;4.088;2023-04-24T05:31:59;25.25;;;11.55;;
32216;SDS011;67098;51.140;4.088;2023-04-24T05:34:25;25.35;;;11.68;;
32216;SDS011;67098;51.140;4.088;2023-04-24T05:36:51;22.42;;;11.30;;
32216;SDS011;67098;51.140;4.088;2023-04-24T05:39:17;26.75;;;11.27;;
32216;SDS011;67098;51.140;4.088;2023-04-24T05:41:43;30.58;;;12.80;;
32216;SDS011;67098;51.140;4.088;2023-04-24T05:44:09;32.90;;;13.93;;
32216;SDS011;67098;51.140;4.088;2023-04-24T05:46:34;37.38;;;16.83;;
32216;SDS011;67098;51.140;4.088;2023-04-24T05:49:00;46.80;;;22.52;;
32216;SDS011;67098;51.140;4.088;2023-04-24T05:51:26;58.13;;;26.85;;
32216;SDS011;67098;51.140;4.088;2023-04-24T05:53:52;68.05;;;31.70;;
32216;SDS011;67098;51.140;4.088;2023-04-24T05:56:18;80.63;;;33.88;;
32216;SDS011;67098;51.140;4.088;2023-04-24T05:58:44;75.50;;;32.60;;
32216;SDS011;67098;51.140;4.088;2023-04-24T06:01:11;73.13;;;31.67;;
32216;SDS011;67098;51.140;4.088;2023-04-24T06:03:37;73.53;;;31.38;;
32216;SDS011;67098;51.140;4.088;2023-04-24T06:06:04;67.57;;;30.50;;
32216;SDS011;67098;51.140;4.088;2023-04-24T06:08:31;88.50;;;34.35;;
32216;SDS011;67098;51.140;4.088;2023-04-24T06:10:57;86.40;;;33.97;;
32216;SDS011;67098;51.140;4.088;2023-04-24T06:13:23;95.22;;;37.72;;
32216;SDS011;67098;51.140;4.088;2023-04-24T06:15:49;106.35;;;39.13;;
32216;SDS011;67098;51.140;4.088;2023-04-24T06:18:15;112.97;;;43.63;;
32216;SDS011;67098;51.140;4.088;2023-04-24T06:20:40;111.95;;;45.50;;
32216;SDS011;67098;51.140;4.088;2023-04-24T06:23:06;113.10;;;44.58;;
32216;SDS011;67098;51.140;4.088;2023-04-24T06:25:32;94.35;;;39.63;;
32216;SDS011;67098;51.140;4.088;2023-04-24T06:27:57;76.40;;;30.48;;
32216;SDS011;67098;51.140;4.088;2023-04-24T06:30:23;60.42;;;22.75;;
32216;SDS011;67098;51.140;4.088;2023-04-24T06:32:50;41.70;;;17.92;;
32216;SDS011;67098;51.140;4.088;2023-04-24T06:35:16;34.72;;;13.85;;
32216;SDS011;67098;51.140;4.088;2023-04-24T06:37:42;27.67;;;11.70;;
32216;SDS011;67098;51.140;4.088;2023-04-24T06:40:08;23.55;;;8.75;;
32216;SDS011;67098;51.140;4.088;2023-04-24T06:42:35;16.98;;;7.15;;
32216;SDS011;67098;51.140;4.088;2023-04-24T06:45:01;22.55;;;7.20;;
32216;SDS011;67098;51.140;4.088;2023-04-24T06:47:27;19.23;;;6.80;;
32216;SDS011;67098;51.140;4.088;2023-04-24T06:49:53;24.02;;;6.40;;
32216;SDS011;67098;51.140;4.088;2023-04-24T06:52:19;14.25;;;6.10;;
32216;SDS011;67098;51.140;4.088;2023-04-24T06:54:44;22.33;;;6.50;;
32216;SDS011;67098;51.140;4.088;2023-04-24T06:57:10;22.23;;;5.63;;
32216;SDS011;67098;51.140;4.088;2023-04-24T06:59:36;14.82;;;5.75;;
32216;SDS011;67098;51.140;4.088;2023-04-24T07:02:03;18.33;;;4.95;;
32216;SDS011;67098;51.140;4.088;2023-04-24T07:04:29;10.93;;;4.30;;
32216;SDS011;67098;51.140;4.088;2023-04-24T07:06:55;18.23;;;4.85;;
32216;SDS011;67098;51.140;4.088;2023-04-24T07:09:23;19.33;;;5.45;;
32216;SDS011;67098;51.140;4.088;2023-04-24T07:11:50;19.88;;;4.80;;
32216;SDS011;67098;51.140;4.088;2023-04-24T07:14:17;17.98;;;4.50;;
32216;SDS011;67098;51.140;4.088;2023-04-24T07:16:42;16.23;;;4.50;;
32216;SDS011;67098;51.140;4.088;2023-04-24T07:19:08;12.73;;;4.32;;
32216;SDS011;67098;51.140;4.088;2023-04-24T07:21:34;23.63;;;4.70;;
32216;SDS011;67098;51.140;4.088;2023-04-24T07:24:00;17.65;;;4.28;;
32216;SDS011;67098;51.140;4.088;2023-04-24T07:26:28;16.90;;;5.05;;
32216;SDS011;67098;51.140;4.088;2023-04-24T07:28:54;21.75;;;6.05;;
32216;SDS011;67098;51.140;4.088;2023-04-24T07:31:21;19.92;;;5.10;;
32216;SDS011;67098;51.140;4.088;2023-04-24T07:33:47;17.75;;;4.95;;
32216;SDS011;67098;51.140;4.088;2023-04-24T07:36:12;32.47;;;6.28;;
32216;SDS011;67098;51.140;4.088;2023-04-24T07:38:45;19.13;;;5.35;;
32216;SDS011;67098;51.140;4.088;2023-04-24T07:41:12;23.40;;;5.68;;
32216;SDS011;67098;51.140;4.088;2023-04-24T07:43:38;26.23;;;6.70;;
32216;SDS011;67098;51.140;4.088;2023-04-24T07:46:03;25.67;;;9.43;;
32216;SDS011;67098;51.140;4.088;2023-04-24T07:48:29;21.13;;;7.68;;
32216;SDS011;67098;51.140;4.088;2023-04-24T07:50:55;29.02;;;6.82;;
32216;SDS011;67098;51.140;4.088;2023-04-24T07:53:20;25.50;;;5.78;;
32216;SDS011;67098;51.140;4.088;2023-04-24T07:55:46;23.95;;;5.32;;
32216;SDS011;67098;51.140;4.088;2023-04-24T07:58:12;22.15;;;5.50;;
32216;SDS011;67098;51.140;4.088;2023-04-24T08:00:38;19.92;;;5.28;;
32216;SDS011;67098;51.140;4.088;2023-04-24T08:03:03;19.45;;;4.63;;
32216;SDS011;67098;51.140;4.088;2023-04-24T08:05:29;21.17;;;5.45;;
32216;SDS011;67098;51.140;4.088;2023-04-24T08:07:55;17.65;;;4.40;;
32216;SDS011;67098;51.140;4.088;2023-04-24T08:10:21;17.23;;;5.13;;
32216;SDS011;67098;51.140;4.088;2023-04-24T08:12:48;16.00;;;4.45;;
32216;SDS011;67098;51.140;4.088;2023-04-24T08:15:14;20.25;;;4.30;;
32216;SDS011;67098;51.140;4.088;2023-04-24T08:17:40;21.13;;;4.95;;
32216;SDS011;67098;51.140;4.088;2023-04-24T08:20:06;19.35;;;4.53;;
32216;SDS011;67098;51.140;4.088;2023-04-24T08:22:38;19.90;;;4.53;;
32216;SDS011;67098;51.140;4.088;2023-04-24T08:25:05;29.35;;;5.85;;
32216;SDS011;67098;51.140;4.088;2023-04-24T08:27:31;21.95;;;4.80;;
32216;SDS011;67098;51.140;4.088;2023-04-24T08:29:57;17.73;;;4.57;;
32216;SDS011;67098;51.140;4.088;2023-04-24T08:32:24;17.05;;;4.47;;
32216;SDS011;67098;51.140;4.088;2023-04-24T08:34:49;14.00;;;4.57;;
32216;SDS011;67098;51.140;4.088;2023-04-24T08:37:17;22.10;;;4.97;;
32216;SDS011;67098;51.140;4.088;2023-04-24T08:39:43;22.27;;;5.55;;
32216;SDS011;67098;51.140;4.088;2023-04-24T08:42:09;23.80;;;5.35;;
32216;SDS011;67098;51.140;4.088;2023-04-24T08:44:36;17.58;;;5.13;;
32216;SDS011;67098;51.140;4.088;2023-04-24T08:47:02;22.80;;;6.13;;
32216;SDS011;67098;51.140;4.088;2023-04-24T08:49:28;19.42;;;5.93;;
32216;SDS011;67098;51.140;4.088;2023-04-24T08:51:54;19.73;;;5.22;;
32216;SDS011;67098;51.140;4.088;2023-04-24T08:54:20;22.48;;;5.95;;
32216;SDS011;67098;51.140;4.088;2023-04-24T08:56:47;15.05;;;4.63;;
32216;SDS011;67098;51.140;4.088;2023-04-24T08:59:14;10.23;;;3.70;;
32216;SDS011;67098;51.140;4.088;2023-04-24T09:01:40;15.45;;;3.90;;
32216;SDS011;67098;51.140;4.088;2023-04-24T09:04:08;18.80;;;3.80;;
32216;SDS011;67098;51.140;4.088;2023-04-24T09:06:38;13.45;;;3.85;;
32216;SDS011;67098;51.140;4.088;2023-04-24T09:09:04;14.05;;;4.03;;
32216;SDS011;67098;51.140;4.088;2023-04-24T09:11:31;18.65;;;4.03;;
32216;SDS011;67098;51.140;4.088;2023-04-24T09:13:58;26.20;;;4.60;;
32216;SDS011;67098;51.140;4.088;2023-04-24T09:16:24;10.07;;;3.63;;
32216;SDS011;67098;51.140;4.088;2023-04-24T09:18:51;24.20;;;4.80;;
32216;SDS011;67098;51.140;4.088;2023-04-24T09:21:19;10.98;;;3.53;;
32216;SDS011;67098;51.140;4.088;2023-04-24T09:23:46;11.40;;;3.00;;
32216;SDS011;67098;51.140;4.088;2023-04-24T09:26:12;10.02;;;3.00;;
32216;SDS011;67098;51.140;4.088;2023-04-24T09:28:39;12.73;;;3.20;;
32216;SDS011;67098;51.140;4.088;2023-04-24T09:31:12;14.57;;;3.53;;
32216;SDS011;67098;51.140;4.088;2023-04-24T09:33:56;8.35;;;2.80;;
32216;SDS011;67098;51.140;4.088;2023-04-24T09:38:58;11.38;;;2.80;;
32216;SDS011;67098;51.140;4.088;2023-04-24T09:41:25;12.90;;;3.50;;
32216;SDS011;67098;51.140;4.088;2023-04-24T09:43:56;9.60;;;2.92;;
32216;SDS011;67098;51.140;4.088;2023-04-24T09:46:28;10.77;;;2.88;;
32216;SDS011;67098;51.140;4.088;2023-04-24T09:48:55;12.27;;;3.20;;
32216;SDS011;67098;51.140;4.088;2023-04-24T09:51:33;16.40;;;3.17;;
32216;SDS011;67098;51.140;4.088;2023-04-24T09:54:04;12.00;;;3.17;;
32216;SDS011;67098;51.140;4.088;2023-04-24T09:56:36;8.50;;;3.67;;
32216;SDS011;67098;51.140;4.088;2023-04-24T09:59:05;17.27;;;4.07;;
32216;SDS011;67098;51.140;4.088;2023-04-24T10:01:32;14.10;;;3.58;;
32216;SDS011;67098;51.140;4.088;2023-04-24T10:03:58;13.40;;;3.25;;
32216;SDS011;67098;51.140;4.088;2023-04-24T10:06:34;8.32;;;2.88;;
32216;SDS011;67098;51.140;4.088;2023-04-24T10:09:01;12.95;;;3.15;;
32216;SDS011;67098;51.140;4.088;2023-04-24T10:11:27;9.52;;;3.17;;
32216;SDS011;67098;51.140;4.088;2023-04-24T10:13:53;11.43;;;3.42;;
32216;SDS011;67098;51.140;4.088;2023-04-24T10:16:20;9.18;;;3.20;;
32216;SDS011;67098;51.140;4.088;2023-04-24T10:18:47;8.88;;;3.28;;
32216;SDS011;67098;51.140;4.088;2023-04-24T10:21:16;12.80;;;3.42;;
32216;SDS011;67098;51.140;4.088;2023-04-24T10:23:42;12.52;;;3.10;;
32216;SDS011;67098;51.140;4.088;2023-04-24T10:26:09;12.93;;;3.45;;
32216;SDS011;67098;51.140;4.088;2023-04-24T10:28:36;9.23;;;2.88;;
32216;SDS011;67098;51.140;4.088;2023-04-24T10:31:02;11.23;;;3.55;;
32216;SDS011;67098;51.140;4.088;2023-04-24T10:33:28;13.82;;;3.60;;
32216;SDS011;67098;51.140;4.088;2023-04-24T10:35:55;10.65;;;3.53;;
32216;SDS011;67098;51.140;4.088;2023-04-24T10:38:24;15.38;;;3.38;;
32216;SDS011;67098;51.140;4.088;2023-04-24T10:40:51;15.75;;;3.30;;
32216;SDS011;67098;51.140;4.088;2023-04-24T10:43:31;13.85;;;3.13;;
32216;SDS011;67098;51.140;4.088;2023-04-24T10:46:02;9.27;;;3.35;;
32216;SDS011;67098;51.140;4.088;2023-04-24T10:48:29;10.27;;;2.75;;
32216;SDS011;67098;51.140;4.088;2023-04-24T10:50:57;13.73;;;3.50;;
32216;SDS011;67098;51.140;4.088;2023-04-24T10:53:24;11.45;;;3.00;;
32216;SDS011;67098;51.140;4.088;2023-04-24T10:59:02;8.98;;;3.30;;
32216;SDS011;67098;51.140;4.088;2023-04-24T11:01:33;11.75;;;3.28;;
32216;SDS011;67098;51.140;4.088;2023-04-24T11:04:02;16.25;;;3.85;;
32216;SDS011;67098;51.140;4.088;2023-04-24T11:06:32;11.80;;;3.97;;
32216;SDS011;67098;51.140;4.088;2023-04-24T11:09:08;16.48;;;3.83;;
32216;SDS011;67098;51.140;4.088;2023-04-24T11:11:37;11.25;;;4.30;;
32216;SDS011;67098;51.140;4.088;2023-04-24T11:14:06;10.77;;;3.30;;
32216;SDS011;67098;51.140;4.088;2023-04-24T11:16:33;7.78;;;2.38;;
32216;SDS011;67098;51.140;4.088;2023-04-24T11:19:04;6.65;;;2.53;;
32216;SDS011;67098;51.140;4.088;2023-04-24T11:22:16;10.07;;;2.60;;
32216;SDS011;67098;51.140;4.088;2023-04-24T11:32:17;9.93;;;2.88;;
32216;SDS011;67098;51.140;4.088;2023-04-24T11:34:50;8.95;;;2.58;;
32216;SDS011;67098;51.140;4.088;2023-04-24T11:37:18;13.07;;;3.55;;
32216;SDS011;67098;51.140;4.088;2023-04-24T11:39:44;12.20;;;4.20;;
32216;SDS011;67098;51.140;4.088;2023-04-24T11:42:10;16.52;;;8.00;;
32216;SDS011;67098;51.140;4.088;2023-04-24T11:44:39;19.70;;;8.43;;
32216;SDS011;67098;51.140;4.088;2023-04-24T11:47:06;15.43;;;6.90;;
32216;SDS011;67098;51.140;4.088;2023-04-24T11:49:32;15.65;;;7.25;;
32216;SDS011;67098;51.140;4.088;2023-04-24T11:52:01;19.90;;;8.52;;
32216;SDS011;67098;51.140;4.088;2023-04-24T11:54:27;10.00;;;3.33;;
32216;SDS011;67098;51.140;4.088;2023-04-24T11:56:53;9.10;;;2.45;;
32216;SDS011;67098;51.140;4.088;2023-04-24T11:59:19;9.98;;;2.28;;
32216;SDS011;67098;51.140;4.088;2023-04-24T12:01:45;5.00;;;1.85;;
32216;SDS011;67098;51.140;4.088;2023-04-24T12:04:12;9.13;;;3.67;;
32216;SDS011;67098;51.140;4.088;2023-04-24T12:06:38;9.80;;;4.80;;
32216;SDS011;67098;51.140;4.088;2023-04-24T12:09:04;13.93;;;5.07;;
32216;SDS011;67098;51.140;4.088;2023-04-24T12:11:30;9.07;;;3.72;;
32216;SDS011;67098;51.140;4.088;2023-04-24T12:13:55;9.82;;;3.60;;
32216;SDS011;67098;51.140;4.088;2023-04-24T12:16:21;7.25;;;3.08;;
32216;SDS011;67098;51.140;4.088;2023-04-24T12:18:50;8.45;;;3.15;;
32216;SDS011;67098;51.140;4.088;2023-04-24T12:21:20;11.57;;;2.95;;
32216;SDS011;67098;51.140;4.088;2023-04-24T12:23:54;4.63;;;1.63;;
32216;SDS011;67098;51.140;4.088;2023-04-24T12:26:20;10.10;;;2.72;;
32216;SDS011;67098;51.140;4.088;2023-04-24T12:28:48;9.82;;;2.97;;
32216;SDS011;67098;51.140;4.088;2023-04-24T12:31:15;7.35;;;3.38;;
32216;SDS011;67098;51.140;4.088;2023-04-24T12:33:41;5.28;;;2.22;;
32216;SDS011;67098;51.140;4.088;2023-04-24T12:36:09;6.57;;;2.05;;
32216;SDS011;67098;51.140;4.088;2023-04-24T12:38:38;7.32;;;1.35;;
32216;SDS011;67098;51.140;4.088;2023-04-24T12:41:09;6.05;;;1.70;;
32216;SDS011;67098;51.140;4.088;2023-04-24T12:43:36;7.90;;;1.88;;
32216;SDS011;67098;51.140;4.088;2023-04-24T12:46:02;5.07;;;2.03;;
32216;SDS011;67098;51.140;4.088;2023-04-24T12:48:29;3.58;;;1.83;;
32216;SDS011;67098;51.140;4.088;2023-04-24T12:50:58;6.93;;;2.38;;
32216;SDS011;67098;51.140;4.088;2023-04-24T12:55:53;4.20;;;1.80;;
32216;SDS011;67098;51.140;4.088;2023-04-24T12:58:19;9.52;;;2.45;;
32216;SDS011;67098;51.140;4.088;2023-04-24T13:00:45;6.70;;;2.08;;
32216;SDS011;67098;51.140;4.088;2023-04-24T13:03:12;6.63;;;1.55;;
32216;SDS011;67098;51.140;4.088;2023-04-24T13:05:38;5.97;;;1.83;;
32216;SDS011;67098;51.140;4.088;2023-04-24T13:08:03;5.97;;;1.55;;
32216;SDS011;67098;51.140;4.088;2023-04-24T13:10:29;5.72;;;1.60;;
32216;SDS011;67098;51.140;4.088;2023-04-24T13:12:55;6.72;;;1.20;;
32216;SDS011;67098;51.140;4.088;2023-04-24T13:15:21;5.57;;;1.00;;
32216;SDS011;67098;51.140;4.088;2023-04-24T13:17:47;4.85;;;1.15;;
32216;SDS011;67098;51.140;4.088;2023-04-24T13:20:12;5.75;;;1.42;;
32216;SDS011;67098;51.140;4.088;2023-04-24T13:22:38;8.13;;;1.60;;
32216;SDS011;67098;51.140;4.088;2023-04-24T13:25:04;4.32;;;1.10;;
32216;SDS011;67098;51.140;4.088;2023-04-24T13:27:31;3.70;;;1.13;;
32216;SDS011;67098;51.140;4.088;2023-04-24T13:29:57;3.03;;;1.42;;
32216;SDS011;67098;51.140;4.088;2023-04-24T13:32:22;3.78;;;1.38;;
32216;SDS011;67098;51.140;4.088;2023-04-24T13:34:48;4.65;;;1.33;;
32216;SDS011;67098;51.140;4.088;2023-04-24T13:37:14;2.92;;;1.50;;
32216;SDS011;67098;51.140;4.088;2023-04-24T13:39:39;3.03;;;1.02;;
32216;SDS011;67098;51.140;4.088;2023-04-24T13:42:06;4.72;;;1.17;;
32216;SDS011;67098;51.140;4.088;2023-04-24T13:44:32;2.40;;;1.02;;
32216;SDS011;67098;51.140;4.088;2023-04-24T13:46:58;3.10;;;1.10;;
32216;SDS011;67098;51.140;4.088;2023-04-24T13:49:24;3.90;;;0.90;;
32216;SDS011;67098;51.140;4.088;2023-04-24T13:51:51;3.13;;;1.10;;
32216;SDS011;67098;51.140;4.088;2023-04-24T13:54:18;4.45;;;1.20;;
32216;SDS011;67098;51.140;4.088;2023-04-24T13:56:44;5.15;;;1.23;;
32216;SDS011;67098;51.140;4.088;2023-04-24T13:59:11;5.18;;;1.45;;
32216;SDS011;67098;51.140;4.088;2023-04-24T14:01:40;6.15;;;1.80;;
32216;SDS011;67098;51.140;4.088;2023-04-24T14:04:05;3.75;;;1.27;;
32216;SDS011;67098;51.140;4.088;2023-04-24T14:06:31;4.57;;;1.38;;
32216;SDS011;67098;51.140;4.088;2023-04-24T14:08:57;5.45;;;1.33;;
32216;SDS011;67098;51.140;4.088;2023-04-24T14:11:22;4.13;;;1.02;;
32216;SDS011;67098;51.140;4.088;2023-04-24T14:13:48;6.38;;;1.63;;
32216;SDS011;67098;51.140;4.088;2023-04-24T14:16:14;3.35;;;0.95;;
32216;SDS011;67098;51.140;4.088;2023-04-24T14:18:40;4.45;;;1.40;;
32216;SDS011;67098;51.140;4.088;2023-04-24T14:21:06;5.15;;;1.20;;
32216;SDS011;67098;51.140;4.088;2023-04-24T14:23:33;6.60;;;1.20;;
32216;SDS011;67098;51.140;4.088;2023-04-24T14:25:59;2.97;;;1.30;;
32216;SDS011;67098;51.140;4.088;2023-04-24T14:28:25;2.83;;;1.00;;
32216;SDS011;67098;51.140;4.088;2023-04-24T14:30:51;4.00;;;1.30;;
32216;SDS011;67098;51.140;4.088;2023-04-24T14:33:17;3.17;;;1.40;;
32216;SDS011;67098;51.140;4.088;2023-04-24T14:35:43;6.60;;;1.40;;
32216;SDS011;67098;51.140;4.088;2023-04-24T14:38:09;3.90;;;1.25;;
32216;SDS011;67098;51.140;4.088;2023-04-24T14:40:35;5.18;;;0.98;;
32216;SDS011;67098;51.140;4.088;2023-04-24T14:43:01;2.03;;;1.17;;
32216;SDS011;67098;51.140;4.088;2023-04-24T14:45:27;6.05;;;1.13;;